createdAt,value
2022-10-01T00:00:00.410Z,5.60
2022-10-01T00:05:03.732Z,5.07
2022-10-01T00:10:11.020Z,6.00
2022-10-01T00:15:16.097Z,6.65
2022-10-01T00:20:19.844Z,6.30
2022-10-01T00:25:25.456Z,11.57
2022-10-01T00:30:28.885Z,9.93
2022-10-01T00:35:32.158Z,8.05
2022-10-01T00:40:36.825Z,5.32
2022-10-01T00:45:40.140Z,5.53
2022-10-01T00:50:44.281Z,7.10
2022-10-01T00:55:55.259Z,6.47
2022-10-01T01:00:58.853Z,7.45
2022-10-01T01:06:03.472Z,9.80
2022-10-01T01:11:17.317Z,7.60
2022-10-01T01:16:27.722Z,7.25
2022-10-01T01:21:36.014Z,8.23
2022-10-01T01:26:54.294Z,8.55
2022-10-01T01:32:03.514Z,9.93
2022-10-01T01:37:12.522Z,11.45
2022-10-01T01:42:23.045Z,11.77
2022-10-01T01:47:30.559Z,13.23
2022-10-01T01:52:34.489Z,10.25
2022-10-01T01:57:41.520Z,11.68
2022-10-01T02:02:53.226Z,15.07
2022-10-01T02:08:12.816Z,13.88
2022-10-01T02:13:24.273Z,15.32
2022-10-01T02:18:35.167Z,17.05
2022-10-01T02:23:44.291Z,19.45
2022-10-01T02:28:49.452Z,14.85
2022-10-01T02:33:56.094Z,16.80
2022-10-01T02:39:00.086Z,18.73
2022-10-01T02:44:07.488Z,16.35
2022-10-01T02:49:13.397Z,16.58
2022-10-01T02:54:23.855Z,15.27
2022-10-01T02:59:27.305Z,15.75
2022-10-01T03:04:32.148Z,14.70
2022-10-01T03:09:36.779Z,15.32
2022-10-01T03:14:40.401Z,14.63
2022-10-01T03:19:45.009Z,16.50
2022-10-01T03:24:48.254Z,15.50
2022-10-01T03:29:51.892Z,15.93
2022-10-01T03:34:56.496Z,16.58
2022-10-01T03:39:59.742Z,15.90
2022-10-01T03:45:03.163Z,18.17
2022-10-01T03:50:09.279Z,16.67
2022-10-01T03:55:12.758Z,16.83
2022-10-01T04:00:16.359Z,16.85
2022-10-01T04:05:21.010Z,22.25
2022-10-01T04:10:24.278Z,18.83
2022-10-01T04:15:28.130Z,18.33
2022-10-01T04:20:33.654Z,21.40
2022-10-01T04:25:36.966Z,18.42
2022-10-01T04:30:43.054Z,20.73
2022-10-01T04:35:47.735Z,20.40
2022-10-01T04:40:51.250Z,20.83
2022-10-01T04:45:54.739Z,19.85
2022-10-01T04:50:59.361Z,22.57
2022-10-01T04:56:02.994Z,23.93
2022-10-01T05:01:06.294Z,25.63
2022-10-01T05:06:10.985Z,23.37
2022-10-01T05:11:14.217Z,23.27
2022-10-01T05:16:17.528Z,18.48
2022-10-01T05:21:22.371Z,19.80
2022-10-01T05:26:25.637Z,23.27
2022-10-01T05:31:28.924Z,22.67
2022-10-01T05:36:33.603Z,24.05
2022-10-01T05:41:41.076Z,29.90
2022-10-01T05:46:44.740Z,35.97
2022-10-01T05:51:49.744Z,32.35
2022-10-01T05:56:53.613Z,27.60
2022-10-01T06:01:57.004Z,40.20
2022-10-01T06:07:01.749Z,50.67
2022-10-01T06:12:10.687Z,34.88
2022-10-01T06:17:13.930Z,23.60
2022-10-01T06:22:18.601Z,15.68
2022-10-01T06:27:21.903Z,15.02
2022-10-01T06:32:25.185Z,14.77
2022-10-01T06:37:29.880Z,12.10
2022-10-01T06:42:33.193Z,14.93
2022-10-01T06:47:38.031Z,13.70
2022-10-01T06:52:51.434Z,12.20
2022-10-01T06:57:56.912Z,12.40
2022-10-01T07:03:00.855Z,12.00
2022-10-01T07:08:05.625Z,11.75
2022-10-01T07:13:09.710Z,12.45
2022-10-01T07:18:13.976Z,12.90
2022-10-01T07:23:18.972Z,11.90
2022-10-01T07:28:25.767Z,12.25
2022-10-01T07:33:29.188Z,11.30
2022-10-01T07:38:34.509Z,12.82
2022-10-01T07:43:39.432Z,10.55
2022-10-01T07:48:46.370Z,16.75
2022-10-01T07:53:51.028Z,14.07
2022-10-01T07:58:56.414Z,15.82
2022-10-01T08:03:59.729Z,10.05
2022-10-01T08:09:04.353Z,7.47
2022-10-01T08:14:07.669Z,6.25
2022-10-01T08:19:12.235Z,5.88
2022-10-01T08:24:17.885Z,4.95
2022-10-01T08:29:21.206Z,4.63
2022-10-01T08:34:25.355Z,4.68
2022-10-01T08:39:31.083Z,4.20
2022-10-01T08:44:41.289Z,6.10
2022-10-01T08:49:49.004Z,5.10
2022-10-01T08:54:59.054Z,5.43
2022-10-01T09:00:07.909Z,3.83
2022-10-01T09:05:21.755Z,2.85
2022-10-01T09:10:36.601Z,3.65
2022-10-01T09:15:48.361Z,2.92
2022-10-01T09:20:56.149Z,2.75
2022-10-01T09:26:01.797Z,2.88
2022-10-01T09:31:13.527Z,3.15
2022-10-01T09:36:24.488Z,4.75
2022-10-01T09:41:31.428Z,4.93
2022-10-01T09:46:35.677Z,3.80
2022-10-01T09:51:43.902Z,1.02
2022-10-01T09:56:54.095Z,1.30
2022-10-01T10:02:00.171Z,0.98
2022-10-01T10:07:06.139Z,0.70
2022-10-01T10:12:27.937Z,1.75
2022-10-01T10:17:31.284Z,2.53
2022-10-01T10:22:34.560Z,2.38
2022-10-01T10:27:39.243Z,1.75
2022-10-01T10:32:44.179Z,0.93
2022-10-01T10:37:51.011Z,3.45
2022-10-01T10:42:57.311Z,2.55
2022-10-01T10:48:02.788Z,2.42
2022-10-01T10:53:22.383Z,1.88
2022-10-01T10:58:29.246Z,3.47
2022-10-01T11:03:34.435Z,4.25
2022-10-01T11:08:38.298Z,3.35
2022-10-01T11:14:07.945Z,1.98
2022-10-01T11:19:33.519Z,4.27
2022-10-01T11:25:02.133Z,3.47
2022-10-01T11:30:11.943Z,3.20
2022-10-01T11:35:51.161Z,3.25
2022-10-01T11:41:02.247Z,2.42
2022-10-01T11:46:13.525Z,2.27
2022-10-01T11:51:21.953Z,2.60
2022-10-01T11:56:48.437Z,3.22
2022-10-01T12:01:59.559Z,4.38
2022-10-01T12:07:12.453Z,2.30
2022-10-01T12:12:20.470Z,4.50
2022-10-01T12:17:29.735Z,2.53
2022-10-01T12:22:36.819Z,2.47
2022-10-01T12:27:59.903Z,1.42
2022-10-01T12:33:22.909Z,2.03
2022-10-01T12:38:38.413Z,2.83
2022-10-01T12:44:11.088Z,1.67
2022-10-01T12:49:25.162Z,2.00
2022-10-01T12:54:55.538Z,2.40
2022-10-01T13:00:08.051Z,1.20
2022-10-01T13:05:24.927Z,2.95
2022-10-01T13:10:48.829Z,1.98
2022-10-01T13:16:00.063Z,1.90
2022-10-01T13:21:10.234Z,2.70
2022-10-01T13:26:18.407Z,2.17
2022-10-01T13:31:35.175Z,2.50
2022-10-01T13:36:40.104Z,1.80
2022-10-01T13:41:43.891Z,2.00
2022-10-01T13:46:54.191Z,1.13
2022-10-01T13:51:59.909Z,1.35
2022-10-01T13:57:10.092Z,1.67
2022-10-01T14:02:32.090Z,1.53
2022-10-01T14:07:39.310Z,1.27
2022-10-01T14:13:02.825Z,1.23
2022-10-01T14:18:11.928Z,0.70
2022-10-01T14:23:19.876Z,2.60
2022-10-01T14:28:36.044Z,2.03
2022-10-01T14:34:00.530Z,2.58
2022-10-01T14:39:16.051Z,2.70
2022-10-01T14:44:27.655Z,1.90
2022-10-01T14:49:32.808Z,1.40
2022-10-01T14:54:44.853Z,1.77
2022-10-01T14:59:49.497Z,1.38
2022-10-01T15:04:55.262Z,2.80
2022-10-01T15:10:09.282Z,1.40
2022-10-01T15:15:21.383Z,2.15
2022-10-01T15:20:27.590Z,3.03
2022-10-01T15:25:33.339Z,1.58
2022-10-01T15:30:38.755Z,4.05
2022-10-01T15:35:43.339Z,1.50
2022-10-01T15:41:04.965Z,2.15
2022-10-01T15:46:21.594Z,1.20
2022-10-01T15:51:27.614Z,2.45
2022-10-01T15:56:33.708Z,2.10
2022-10-01T16:01:42.067Z,3.00
2022-10-01T16:06:49.416Z,2.67
2022-10-01T16:11:57.218Z,5.47
2022-10-01T16:17:30.831Z,2.45
2022-10-01T16:22:38.004Z,2.30
2022-10-01T16:27:50.149Z,2.10
2022-10-01T16:32:54.940Z,3.72
2022-10-01T16:37:59.137Z,2.58
2022-10-01T16:43:04.388Z,2.10
2022-10-01T16:48:15.680Z,2.10
2022-10-01T16:53:19.906Z,2.65
2022-10-01T16:58:24.589Z,2.25
2022-10-01T17:03:27.979Z,4.43
2022-10-01T17:08:32.829Z,2.53
2022-10-01T17:13:38.078Z,2.60
2022-10-01T17:18:44.201Z,2.72
2022-10-01T17:23:58.079Z,2.53
2022-10-01T17:29:01.757Z,2.13
2022-10-01T17:34:07.431Z,7.15
2022-10-01T17:39:12.459Z,3.20
2022-10-01T17:44:15.901Z,4.38
2022-10-01T17:49:19.428Z,1.50
2022-10-01T17:54:24.444Z,2.40
2022-10-01T17:59:27.761Z,1.58
2022-10-01T18:04:30.997Z,1.48
2022-10-01T18:09:36.956Z,1.45
2022-10-01T18:14:41.373Z,1.40
2022-10-01T18:19:53.230Z,1.20
2022-10-01T18:24:58.815Z,2.40
2022-10-01T18:30:02.664Z,1.88
2022-10-01T18:35:15.521Z,1.13
2022-10-01T18:40:22.773Z,1.08
2022-10-01T18:45:45.576Z,1.30
2022-10-01T18:50:57.135Z,1.90
2022-10-01T18:56:24.848Z,0.70
2022-10-01T19:01:36.105Z,1.50
2022-10-01T19:07:09.440Z,0.82
2022-10-01T19:12:30.034Z,2.58
2022-10-01T19:17:52.900Z,1.20
2022-10-01T19:23:15.610Z,2.43
2022-10-01T19:28:35.677Z,2.00
2022-10-01T19:33:45.654Z,2.40
2022-10-01T19:38:52.016Z,1.55
2022-10-01T19:44:01.129Z,1.33
2022-10-01T19:49:14.353Z,2.15
2022-10-01T19:54:19.471Z,1.23
2022-10-01T19:59:24.705Z,0.57
2022-10-01T20:04:35.278Z,1.40
2022-10-01T20:09:45.804Z,0.85
2022-10-01T20:15:11.944Z,1.20
2022-10-01T20:20:23.341Z,1.50
2022-10-01T20:25:32.146Z,2.25
2022-10-01T20:30:44.912Z,1.70
2022-10-01T20:35:57.643Z,2.22
2022-10-01T20:41:06.351Z,1.63
2022-10-01T20:46:18.045Z,1.85
2022-10-01T20:51:29.503Z,2.65
2022-10-01T20:56:38.561Z,0.73
2022-10-01T21:02:02.419Z,1.60
2022-10-01T21:07:11.776Z,0.60
2022-10-01T21:12:21.351Z,1.00
2022-10-01T21:17:41.063Z,0.90
2022-10-01T21:22:57.578Z,1.30
2022-10-01T21:28:13.184Z,2.03
2022-10-01T21:33:26.741Z,1.55
2022-10-01T21:38:40.101Z,1.10
2022-10-01T21:43:56.634Z,1.65
2022-10-01T21:49:09.719Z,2.70
2022-10-01T21:54:44.732Z,3.80
2022-10-01T22:00:11.257Z,3.60
2022-10-01T22:05:28.207Z,1.10
2022-10-01T22:10:38.313Z,1.00
2022-10-01T22:15:44.331Z,1.23
2022-10-01T22:20:49.681Z,2.60
2022-10-01T22:25:58.375Z,1.48
2022-10-01T22:31:05.897Z,0.70
2022-10-01T22:36:14.699Z,2.33
2022-10-01T22:41:24.939Z,1.48
2022-10-01T22:46:55.716Z,1.95
2022-10-01T22:52:10.886Z,1.63
2022-10-01T22:57:31.280Z,2.43
2022-10-01T23:02:39.472Z,1.60
2022-10-01T23:07:53.239Z,2.17
2022-10-01T23:13:10.746Z,3.08
2022-10-01T23:18:25.237Z,1.75
2022-10-01T23:23:33.377Z,1.63
2022-10-01T23:28:45.913Z,1.70
2022-10-01T23:34:03.475Z,2.08
2022-10-01T23:39:29.085Z,2.20
2022-10-01T23:44:38.177Z,0.80
2022-10-01T23:49:45.620Z,2.38
2022-10-01T23:54:56.618Z,3.25
